sensor_id;sensor_type;location;lat;lon;timestamp;pressure;altitude;pressure_sealevel;temperature
69785;BMP280;14177;51.520;6.764;2023-09-08T00:00:01;101456.34;;;20.97
69785;BMP280;14177;51.520;6.764;2023-09-08T00:02:35;101451.38;;;20.92
69785;BMP280;14177;51.520;6.764;2023-09-08T00:05:02;101454.22;;;20.89
69785;BMP280;14177;51.520;6.764;2023-09-08T00:07:29;101449.94;;;20.87
69785;BMP280;14177;51.520;6.764;2023-09-08T00:09:56;101449.38;;;20.82
69785;BMP280;14177;51.520;6.764;2023-09-08T00:12:24;101450.59;;;20.77
69785;BMP280;14177;51.520;6.764;2023-09-08T00:14:51;101453.63;;;20.71
69785;BMP280;14177;51.520;6.764;2023-09-08T00:17:17;101450.53;;;20.64
69785;BMP280;14177;51.520;6.764;2023-09-08T00:19:45;101449.84;;;20.61
69785;BMP280;14177;51.520;6.764;2023-09-08T00:22:12;101445.88;;;20.54
69785;BMP280;14177;51.520;6.764;2023-09-08T00:24:39;101442.78;;;20.47
69785;BMP280;14177;51.520;6.764;2023-09-08T00:27:06;101452.78;;;20.42
69785;BMP280;14177;51.520;6.764;2023-09-08T00:29:33;101452.19;;;20.37
69785;BMP280;14177;51.520;6.764;2023-09-08T00:32:00;101451.56;;;20.34
69785;BMP280;14177;51.520;6.764;2023-09-08T00:34:27;101447.28;;;20.31
69785;BMP280;14177;51.520;6.764;2023-09-08T00:36:54;101443.25;;;20.26
69785;BMP280;14177;51.520;6.764;2023-09-08T00:39:21;101445.13;;;20.24
69785;BMP280;14177;51.520;6.764;2023-09-08T00:41:48;101445.31;;;20.21
69785;BMP280;14177;51.520;6.764;2023-09-08T00:44:15;101443.81;;;20.17
69785;BMP280;14177;51.520;6.764;2023-09-08T00:46:42;101447.56;;;20.13
69785;BMP280;14177;51.520;6.764;2023-09-08T00:49:09;101449.50;;;20.09
69785;BMP280;14177;51.520;6.764;2023-09-08T00:51:39;101447.94;;;20.07
69785;BMP280;14177;51.520;6.764;2023-09-08T00:54:07;101448.09;;;20.04
69785;BMP280;14177;51.520;6.764;2023-09-08T00:56:38;101449.97;;;20.02
69785;BMP280;14177;51.520;6.764;2023-09-08T00:59:06;101455.38;;;20.00
69785;BMP280;14177;51.520;6.764;2023-09-08T01:01:34;101452.88;;;19.97
69785;BMP280;14177;51.520;6.764;2023-09-08T01:04:02;101452.38;;;19.91
69785;BMP280;14177;51.520;6.764;2023-09-08T01:06:31;101456.97;;;19.87
69785;BMP280;14177;51.520;6.764;2023-09-08T01:09:00;101456.28;;;19.84
69785;BMP280;14177;51.520;6.764;2023-09-08T01:11:27;101445.00;;;19.82
69785;BMP280;14177;51.520;6.764;2023-09-08T01:13:55;101442.47;;;19.80
69785;BMP280;14177;51.520;6.764;2023-09-08T01:16:22;101443.47;;;19.78
69785;BMP280;14177;51.520;6.764;2023-09-08T01:18:49;101436.59;;;19.75
69785;BMP280;14177;51.520;6.764;2023-09-08T01:25:45;101451.91;;;19.69
69785;BMP280;14177;51.520;6.764;2023-09-08T01:28:13;101452.94;;;19.66
69785;BMP280;14177;51.520;6.764;2023-09-08T01:30:42;101455.88;;;19.62
69785;BMP280;14177;51.520;6.764;2023-09-08T01:33:10;101453.66;;;19.55
69785;BMP280;14177;51.520;6.764;2023-09-08T01:35:37;101439.13;;;19.48
69785;BMP280;14177;51.520;6.764;2023-09-08T01:38:05;101444.66;;;19.43
69785;BMP280;14177;51.520;6.764;2023-09-08T01:40:32;101448.59;;;19.36
69785;BMP280;14177;51.520;6.764;2023-09-08T01:42:59;101447.81;;;19.34
69785;BMP280;14177;51.520;6.764;2023-09-08T01:45:26;101443.66;;;19.30
69785;BMP280;14177;51.520;6.764;2023-09-08T01:47:53;101441.31;;;19.26
69785;BMP280;14177;51.520;6.764;2023-09-08T01:50:20;101442.47;;;19.20
69785;BMP280;14177;51.520;6.764;2023-09-08T01:52:48;101436.84;;;19.11
69785;BMP280;14177;51.520;6.764;2023-09-08T01:55:15;101435.50;;;19.04
69785;BMP280;14177;51.520;6.764;2023-09-08T01:57:45;101436.81;;;18.95
69785;BMP280;14177;51.520;6.764;2023-09-08T02:00:13;101436.41;;;18.87
69785;BMP280;14177;51.520;6.764;2023-09-08T02:02:41;101437.53;;;18.83
69785;BMP280;14177;51.520;6.764;2023-09-08T02:05:08;101433.53;;;18.76
69785;BMP280;14177;51.520;6.764;2023-09-08T02:07:36;101435.56;;;18.71
69785;BMP280;14177;51.520;6.764;2023-09-08T02:10:03;101443.78;;;18.65
69785;BMP280;14177;51.520;6.764;2023-09-08T02:12:30;101439.50;;;18.63
69785;BMP280;14177;51.520;6.764;2023-09-08T02:14:58;101439.59;;;18.61
69785;BMP280;14177;51.520;6.764;2023-09-08T02:17:25;101442.41;;;18.58
69785;BMP280;14177;51.520;6.764;2023-09-08T02:19:52;101446.13;;;18.54
69785;BMP280;14177;51.520;6.764;2023-09-08T02:22:19;101443.59;;;18.53
69785;BMP280;14177;51.520;6.764;2023-09-08T02:24:46;101445.44;;;18.51
69785;BMP280;14177;51.520;6.764;2023-09-08T02:27:13;101435.09;;;18.48
69785;BMP280;14177;51.520;6.764;2023-09-08T02:29:40;101438.50;;;18.50
69785;BMP280;14177;51.520;6.764;2023-09-08T02:32:07;101447.22;;;18.50
69785;BMP280;14177;51.520;6.764;2023-09-08T02:34:36;101440.34;;;18.48
69785;BMP280;14177;51.520;6.764;2023-09-08T02:37:07;101442.28;;;18.44
69785;BMP280;14177;51.520;6.764;2023-09-08T02:39:34;101445.06;;;18.41
69785;BMP280;14177;51.520;6.764;2023-09-08T02:42:01;101443.69;;;18.34
69785;BMP280;14177;51.520;6.764;2023-09-08T02:44:28;101442.31;;;18.28
69785;BMP280;14177;51.520;6.764;2023-09-08T02:46:56;101439.91;;;18.23
69785;BMP280;14177;51.520;6.764;2023-09-08T02:49:24;101434.69;;;18.22
69785;BMP280;14177;51.520;6.764;2023-09-08T02:51:51;101436.41;;;18.23
69785;BMP280;14177;51.520;6.764;2023-09-08T02:54:18;101436.50;;;18.21
69785;BMP280;14177;51.520;6.764;2023-09-08T02:56:45;101436.66;;;18.18
69785;BMP280;14177;51.520;6.764;2023-09-08T02:59:12;101429.00;;;18.14
69785;BMP280;14177;51.520;6.764;2023-09-08T03:01:40;101430.00;;;18.11
69785;BMP280;14177;51.520;6.764;2023-09-08T03:04:08;101437.13;;;18.09
69785;BMP280;14177;51.520;6.764;2023-09-08T03:06:36;101428.31;;;18.10
69785;BMP280;14177;51.520;6.764;2023-09-08T03:09:03;101437.06;;;18.11
69785;BMP280;14177;51.520;6.764;2023-09-08T03:11:30;101436.19;;;18.10
69785;BMP280;14177;51.520;6.764;2023-09-08T03:13:57;101435.50;;;18.07
69785;BMP280;14177;51.520;6.764;2023-09-08T03:16:24;101435.72;;;18.02
69785;BMP280;14177;51.520;6.764;2023-09-08T03:18:51;101435.22;;;17.96
69785;BMP280;14177;51.520;6.764;2023-09-08T03:21:18;101426.75;;;17.89
69785;BMP280;14177;51.520;6.764;2023-09-08T03:23:45;101423.59;;;17.83
69785;BMP280;14177;51.520;6.764;2023-09-08T03:26:12;101422.16;;;17.77
69785;BMP280;14177;51.520;6.764;2023-09-08T03:28:42;101418.81;;;17.74
69785;BMP280;14177;51.520;6.764;2023-09-08T03:31:10;101421.59;;;17.71
69785;BMP280;14177;51.520;6.764;2023-09-08T03:33:37;101414.78;;;17.67
69785;BMP280;14177;51.520;6.764;2023-09-08T03:36:06;101421.13;;;17.63
69785;BMP280;14177;51.520;6.764;2023-09-08T03:38:34;101405.59;;;17.58
69785;BMP280;14177;51.520;6.764;2023-09-08T03:41:06;101414.47;;;17.56
69785;BMP280;14177;51.520;6.764;2023-09-08T03:43:33;101411.06;;;17.54
69785;BMP280;14177;51.520;6.764;2023-09-08T03:46:01;101414.63;;;17.53
69785;BMP280;14177;51.520;6.764;2023-09-08T03:48:28;101412.09;;;17.51
69785;BMP280;14177;51.520;6.764;2023-09-08T03:50:55;101418.31;;;17.49
69785;BMP280;14177;51.520;6.764;2023-09-08T03:53:22;101412.38;;;17.45
69785;BMP280;14177;51.520;6.764;2023-09-08T03:55:57;101413.41;;;17.43
69785;BMP280;14177;51.520;6.764;2023-09-08T03:58:24;101416.94;;;17.42
69785;BMP280;14177;51.520;6.764;2023-09-08T04:00:51;101418.81;;;17.40
69785;BMP280;14177;51.520;6.764;2023-09-08T04:03:18;101417.25;;;17.36
69785;BMP280;14177;51.520;6.764;2023-09-08T04:05:46;101413.91;;;17.32
69785;BMP280;14177;51.520;6.764;2023-09-08T04:08:13;101417.50;;;17.30
69785;BMP280;14177;51.520;6.764;2023-09-08T04:10:40;101407.84;;;17.30
69785;BMP280;14177;51.520;6.764;2023-09-08T04:13:07;101421.84;;;17.31
69785;BMP280;14177;51.520;6.764;2023-09-08T04:15:34;101422.75;;;17.30
69785;BMP280;14177;51.520;6.764;2023-09-08T04:18:01;101424.66;;;17.26
69785;BMP280;14177;51.520;6.764;2023-09-08T04:20:29;101417.81;;;17.24
69785;BMP280;14177;51.520;6.764;2023-09-08T04:22:56;101427.59;;;17.20
69785;BMP280;14177;51.520;6.764;2023-09-08T04:25:23;101425.19;;;17.16
69785;BMP280;14177;51.520;6.764;2023-09-08T04:27:52;101426.25;;;17.12
69785;BMP280;14177;51.520;6.764;2023-09-08T04:30:19;101422.06;;;17.08
69785;BMP280;14177;51.520;6.764;2023-09-08T04:32:46;101422.06;;;17.08
69785;BMP280;14177;51.520;6.764;2023-09-08T04:35:13;101422.06;;;17.08
69785;BMP280;14177;51.520;6.764;2023-09-08T04:37:40;101419.41;;;17.09
69785;BMP280;14177;51.520;6.764;2023-09-08T04:40:08;101429.03;;;17.09
69785;BMP280;14177;51.520;6.764;2023-09-08T04:42:36;101430.72;;;17.10
69785;BMP280;14177;51.520;6.764;2023-09-08T04:45:05;101422.03;;;17.09
69785;BMP280;14177;51.520;6.764;2023-09-08T04:47:33;101421.16;;;17.09
69785;BMP280;14177;51.520;6.764;2023-09-08T04:50:00;101422.03;;;17.09
69785;BMP280;14177;51.520;6.764;2023-09-08T04:52:27;101422.06;;;17.08
69785;BMP280;14177;51.520;6.764;2023-09-08T04:54:54;101425.63;;;17.07
69785;BMP280;14177;51.520;6.764;2023-09-08T04:57:21;101427.31;;;17.08
69785;BMP280;14177;51.520;6.764;2023-09-08T04:59:53;101423.94;;;17.06
69785;BMP280;14177;51.520;6.764;2023-09-08T05:02:20;101424.06;;;17.03
69785;BMP280;14177;51.520;6.764;2023-09-08T05:04:47;101427.69;;;17.01
69785;BMP280;14177;51.520;6.764;2023-09-08T05:07:15;101429.47;;;17.00
69785;BMP280;14177;51.520;6.764;2023-09-08T05:09:42;101421.72;;;16.97
69785;BMP280;14177;51.520;6.764;2023-09-08T05:12:09;101428.75;;;16.97
69785;BMP280;14177;51.520;6.764;2023-09-08T05:14:36;101428.03;;;16.93
69785;BMP280;14177;51.520;6.764;2023-09-08T05:17:03;101428.13;;;16.92
69785;BMP280;14177;51.520;6.764;2023-09-08T05:19:31;101431.72;;;16.89
69785;BMP280;14177;51.520;6.764;2023-09-08T05:21:59;101436.06;;;16.90
69785;BMP280;14177;51.520;6.764;2023-09-08T05:24:26;101434.22;;;16.92
69785;BMP280;14177;51.520;6.764;2023-09-08T05:26:54;101441.16;;;16.93
69785;BMP280;14177;51.520;6.764;2023-09-08T05:29:21;101446.28;;;16.96
69785;BMP280;14177;51.520;6.764;2023-09-08T05:31:49;101441.81;;;16.98
69785;BMP280;14177;51.520;6.764;2023-09-08T05:34:17;101433.78;;;17.01
69785;BMP280;14177;51.520;6.764;2023-09-08T05:36:45;101436.22;;;17.06
69785;BMP280;14177;51.520;6.764;2023-09-08T05:39:15;101434.28;;;17.09
69785;BMP280;14177;51.520;6.764;2023-09-08T05:41:42;101436.66;;;17.13
69785;BMP280;14177;51.520;6.764;2023-09-08T05:44:09;101439.25;;;17.15
69785;BMP280;14177;51.520;6.764;2023-09-08T05:46:36;101441.72;;;17.18
69785;BMP280;14177;51.520;6.764;2023-09-08T05:49:03;101441.63;;;17.19
69785;BMP280;14177;51.520;6.764;2023-09-08T05:51:31;101451.94;;;17.24
69785;BMP280;14177;51.520;6.764;2023-09-08T05:54:00;101449.16;;;17.27
69785;BMP280;14177;51.520;6.764;2023-09-08T05:56:31;101439.31;;;17.32
69785;BMP280;14177;51.520;6.764;2023-09-08T05:58:58;101444.44;;;17.35
69785;BMP280;14177;51.520;6.764;2023-09-08T06:01:27;101440.59;;;17.42
69785;BMP280;14177;51.520;6.764;2023-09-08T06:03:55;101445.53;;;17.48
69785;BMP280;14177;51.520;6.764;2023-09-08T06:06:24;101442.44;;;17.57
69785;BMP280;14177;51.520;6.764;2023-09-08T06:12:58;101440.59;;;17.76
69785;BMP280;14177;51.520;6.764;2023-09-08T06:15:26;101449.06;;;17.82
69785;BMP280;14177;51.520;6.764;2023-09-08T06:17:53;101453.00;;;17.91
69785;BMP280;14177;51.520;6.764;2023-09-08T06:20:20;101454.38;;;17.98
69785;BMP280;14177;51.520;6.764;2023-09-08T06:22:49;101455.69;;;18.06
69785;BMP280;14177;51.520;6.764;2023-09-08T06:25:16;101453.44;;;18.16
69785;BMP280;14177;51.520;6.764;2023-09-08T06:27:43;101447.56;;;18.28
69785;BMP280;14177;51.520;6.764;2023-09-08T06:30:11;101443.22;;;18.43
69785;BMP280;14177;51.520;6.764;2023-09-08T06:32:40;101445.81;;;18.60
69785;BMP280;14177;51.520;6.764;2023-09-08T06:35:08;101447.50;;;18.77
69785;BMP280;14177;51.520;6.764;2023-09-08T06:37:37;101449.41;;;18.90
69785;BMP280;14177;51.520;6.764;2023-09-08T06:40:06;101448.88;;;18.99
69785;BMP280;14177;51.520;6.764;2023-09-08T06:42:34;101445.69;;;19.10
69785;BMP280;14177;51.520;6.764;2023-09-08T06:45:11;101447.56;;;19.23
69785;BMP280;14177;51.520;6.764;2023-09-08T06:47:38;101449.34;;;19.38
69785;BMP280;14177;51.520;6.764;2023-09-08T06:50:06;101450.19;;;19.54
69785;BMP280;14177;51.520;6.764;2023-09-08T06:52:33;101452.78;;;19.69
69785;BMP280;14177;51.520;6.764;2023-09-08T06:55:00;101454.59;;;19.83
69785;BMP280;14177;51.520;6.764;2023-09-08T06:57:28;101452.94;;;19.96
69785;BMP280;14177;51.520;6.764;2023-09-08T06:59:55;101450.28;;;20.11
69785;BMP280;14177;51.520;6.764;2023-09-08T07:02:22;101438.81;;;20.26
69785;BMP280;14177;51.520;6.764;2023-09-08T07:04:49;101442.22;;;20.42
69785;BMP280;14177;51.520;6.764;2023-09-08T07:07:17;101447.41;;;20.58
69785;BMP280;14177;51.520;6.764;2023-09-08T07:09:47;101434.13;;;20.73
69785;BMP280;14177;51.520;6.764;2023-09-08T07:12:14;101441.00;;;20.89
69785;BMP280;14177;51.520;6.764;2023-09-08T07:14:41;101439.28;;;21.02
69785;BMP280;14177;51.520;6.764;2023-09-08T07:17:08;101451.28;;;21.20
69785;BMP280;14177;51.520;6.764;2023-09-08T07:19:35;101447.69;;;21.35
69785;BMP280;14177;51.520;6.764;2023-09-08T07:22:02;101450.81;;;21.54
69785;BMP280;14177;51.520;6.764;2023-09-08T07:24:30;101459.16;;;21.75
69785;BMP280;14177;51.520;6.764;2023-09-08T07:26:57;101456.88;;;21.95
69785;BMP280;14177;51.520;6.764;2023-09-08T07:29:24;101455.63;;;22.13
69785;BMP280;14177;51.520;6.764;2023-09-08T07:31:51;101463.84;;;22.35
69785;BMP280;14177;51.520;6.764;2023-09-08T07:34:18;101467.66;;;22.56
69785;BMP280;14177;51.520;6.764;2023-09-08T07:36:45;101457.97;;;22.80
69785;BMP280;14177;51.520;6.764;2023-09-08T07:39:12;101463.44;;;23.02
69785;BMP280;14177;51.520;6.764;2023-09-08T07:41:39;101468.81;;;23.25
69785;BMP280;14177;51.520;6.764;2023-09-08T07:44:09;101452.38;;;23.56
69785;BMP280;14177;51.520;6.764;2023-09-08T07:46:37;101461.19;;;23.91
69785;BMP280;14177;51.520;6.764;2023-09-08T07:49:04;101459.94;;;24.18
69785;BMP280;14177;51.520;6.764;2023-09-08T07:51:31;101449.13;;;24.43
69785;BMP280;14177;51.520;6.764;2023-09-08T07:53:58;101443.88;;;24.76
69785;BMP280;14177;51.520;6.764;2023-09-08T07:56:25;101440.94;;;25.01
69785;BMP280;14177;51.520;6.764;2023-09-08T07:58:52;101447.06;;;25.23
69785;BMP280;14177;51.520;6.764;2023-09-08T08:01:19;101437.81;;;25.49
69785;BMP280;14177;51.520;6.764;2023-09-08T08:03:46;101442.47;;;25.68
69785;BMP280;14177;51.520;6.764;2023-09-08T08:06:13;101444.84;;;25.82
69785;BMP280;14177;51.520;6.764;2023-09-08T08:08:41;101438.31;;;26.06
69785;BMP280;14177;51.520;6.764;2023-09-08T08:11:14;101438.72;;;26.31
69785;BMP280;14177;51.520;6.764;2023-09-08T08:13:41;101443.81;;;26.55
69785;BMP280;14177;51.520;6.764;2023-09-08T08:16:08;101440.81;;;26.78
69785;BMP280;14177;51.520;6.764;2023-09-08T08:18:35;101443.53;;;26.88
69785;BMP280;14177;51.520;6.764;2023-09-08T08:21:03;101441.22;;;27.13
69785;BMP280;14177;51.520;6.764;2023-09-08T08:23:31;101444.22;;;27.29
69785;BMP280;14177;51.520;6.764;2023-09-08T08:25:59;101443.50;;;27.36
69785;BMP280;14177;51.520;6.764;2023-09-08T08:28:26;101436.66;;;27.53
69785;BMP280;14177;51.520;6.764;2023-09-08T08:30:53;101439.22;;;27.73
69785;BMP280;14177;51.520;6.764;2023-09-08T08:33:21;101443.16;;;27.88
69785;BMP280;14177;51.520;6.764;2023-09-08T08:35:53;101435.91;;;28.17
69785;BMP280;14177;51.520;6.764;2023-09-08T08:38:20;101427.56;;;28.49
69785;BMP280;14177;51.520;6.764;2023-09-08T08:40:47;101423.44;;;28.63
69785;BMP280;14177;51.520;6.764;2023-09-08T08:43:14;101420.69;;;28.82
69785;BMP280;14177;51.520;6.764;2023-09-08T08:45:43;101426.56;;;28.95
69785;BMP280;14177;51.520;6.764;2023-09-08T08:48:11;101426.28;;;29.16
69785;BMP280;14177;51.520;6.764;2023-09-08T08:50:42;101432.25;;;29.27
69785;BMP280;14177;51.520;6.764;2023-09-08T08:53:11;101426.59;;;29.30
69785;BMP280;14177;51.520;6.764;2023-09-08T08:55:40;101435.63;;;29.29
69785;BMP280;14177;51.520;6.764;2023-09-08T08:58:07;101428.59;;;29.28
69785;BMP280;14177;51.520;6.764;2023-09-08T09:00:35;101429.97;;;29.32
69785;BMP280;14177;51.520;6.764;2023-09-08T09:03:05;101420.31;;;29.49
69785;BMP280;14177;51.520;6.764;2023-09-08T09:05:43;101423.50;;;29.70
69785;BMP280;14177;51.520;6.764;2023-09-08T09:08:32;101433.53;;;29.85
69785;BMP280;14177;51.520;6.764;2023-09-08T09:10:59;101424.38;;;29.95
69785;BMP280;14177;51.520;6.764;2023-09-08T09:13:26;101426.22;;;29.95
69785;BMP280;14177;51.520;6.764;2023-09-08T09:15:59;101423.00;;;30.09
69785;BMP280;14177;51.520;6.764;2023-09-08T09:18:27;101427.16;;;30.03
69785;BMP280;14177;51.520;6.764;2023-09-08T09:21:01;101428.31;;;30.01
69785;BMP280;14177;51.520;6.764;2023-09-08T09:23:32;101427.91;;;30.13
69785;BMP280;14177;51.520;6.764;2023-09-08T09:26:03;101431.66;;;30.28
69785;BMP280;14177;51.520;6.764;2023-09-08T09:28:33;101424.53;;;30.37
69785;BMP280;14177;51.520;6.764;2023-09-08T09:31:01;101433.03;;;30.32
69785;BMP280;14177;51.520;6.764;2023-09-08T09:33:29;101429.31;;;30.25
69785;BMP280;14177;51.520;6.764;2023-09-08T09:35:57;101425.47;;;30.28
69785;BMP280;14177;51.520;6.764;2023-09-08T09:38:27;101426.03;;;30.57
69785;BMP280;14177;51.520;6.764;2023-09-08T09:40:55;101417.44;;;30.87
69785;BMP280;14177;51.520;6.764;2023-09-08T09:43:22;101421.81;;;30.96
69785;BMP280;14177;51.520;6.764;2023-09-08T09:45:50;101420.00;;;30.96
69785;BMP280;14177;51.520;6.764;2023-09-08T09:48:21;101416.22;;;31.15
69785;BMP280;14177;51.520;6.764;2023-09-08T09:50:48;101423.63;;;31.20
69785;BMP280;14177;51.520;6.764;2023-09-08T09:53:17;101422.94;;;31.34
69785;BMP280;14177;51.520;6.764;2023-09-08T09:55:46;101411.97;;;31.69
69785;BMP280;14177;51.520;6.764;2023-09-08T09:58:13;101413.78;;;32.01
69785;BMP280;14177;51.520;6.764;2023-09-08T10:00:41;101405.53;;;32.34
69785;BMP280;14177;51.520;6.764;2023-09-08T10:03:14;101401.47;;;32.46
69785;BMP280;14177;51.520;6.764;2023-09-08T10:05:41;101406.13;;;32.68
69785;BMP280;14177;51.520;6.764;2023-09-08T10:08:09;101407.50;;;32.94
69785;BMP280;14177;51.520;6.764;2023-09-08T10:10:36;101408.16;;;32.96
69785;BMP280;14177;51.520;6.764;2023-09-08T10:13:06;101408.38;;;32.87
69785;BMP280;14177;51.520;6.764;2023-09-08T10:15:37;101410.47;;;32.77
69785;BMP280;14177;51.520;6.764;2023-09-08T10:18:11;101397.28;;;32.82
69785;BMP280;14177;51.520;6.764;2023-09-08T10:20:43;101405.56;;;33.11
69785;BMP280;14177;51.520;6.764;2023-09-08T10:23:22;101406.88;;;33.23
69785;BMP280;14177;51.520;6.764;2023-09-08T10:25:57;101409.31;;;33.32
69785;BMP280;14177;51.520;6.764;2023-09-08T10:28:28;101404.56;;;33.57
69785;BMP280;14177;51.520;6.764;2023-09-08T10:30:56;101409.84;;;33.95
69785;BMP280;14177;51.520;6.764;2023-09-08T10:33:25;101402.59;;;33.81
69785;BMP280;14177;51.520;6.764;2023-09-08T10:35:53;101403.69;;;33.86
69785;BMP280;14177;51.520;6.764;2023-09-08T10:38:27;101404.75;;;34.00
69785;BMP280;14177;51.520;6.764;2023-09-08T10:44:03;101409.34;;;34.14
69785;BMP280;14177;51.520;6.764;2023-09-08T10:46:33;101407.72;;;34.42
69785;BMP280;14177;51.520;6.764;2023-09-08T10:49:05;101402.75;;;34.45
69785;BMP280;14177;51.520;6.764;2023-09-08T10:51:35;101401.28;;;34.57
69785;BMP280;14177;51.520;6.764;2023-09-08T10:54:03;101404.63;;;34.59
69785;BMP280;14177;51.520;6.764;2023-09-08T10:56:56;101405.13;;;34.77
69785;BMP280;14177;51.520;6.764;2023-09-08T10:59:34;101400.38;;;34.79
69785;BMP280;14177;51.520;6.764;2023-09-08T11:02:05;101404.91;;;34.79
69785;BMP280;14177;51.520;6.764;2023-09-08T11:04:34;101405.81;;;34.86
69785;BMP280;14177;51.520;6.764;2023-09-08T11:07:02;101405.38;;;34.82
69785;BMP280;14177;51.520;6.764;2023-09-08T11:09:36;101405.28;;;34.90
69785;BMP280;14177;51.520;6.764;2023-09-08T11:12:05;101404.69;;;34.95
69785;BMP280;14177;51.520;6.764;2023-09-08T11:14:32;101399.44;;;35.22
69785;BMP280;14177;51.520;6.764;2023-09-08T11:17:03;101398.69;;;35.49
69785;BMP280;14177;51.520;6.764;2023-09-08T11:19:47;101395.72;;;35.44
69785;BMP280;14177;51.520;6.764;2023-09-08T11:22:18;101401.31;;;35.21
69785;BMP280;14177;51.520;6.764;2023-09-08T11:24:45;101401.22;;;35.15
69785;BMP280;14177;51.520;6.764;2023-09-08T11:27:12;101393.03;;;35.44
69785;BMP280;14177;51.520;6.764;2023-09-08T11:29:39;101396.00;;;35.70
69785;BMP280;14177;51.520;6.764;2023-09-08T11:32:08;101391.22;;;35.72
69785;BMP280;14177;51.520;6.764;2023-09-08T11:34:36;101383.69;;;35.88
69785;BMP280;14177;51.520;6.764;2023-09-08T11:37:09;101391.44;;;35.98
69785;BMP280;14177;51.520;6.764;2023-09-08T11:39:38;101378.31;;;35.95
69785;BMP280;14177;51.520;6.764;2023-09-08T11:42:08;101386.56;;;35.87
69785;BMP280;14177;51.520;6.764;2023-09-08T11:44:35;101392.81;;;35.87
69785;BMP280;14177;51.520;6.764;2023-09-08T11:47:06;101372.97;;;36.01
69785;BMP280;14177;51.520;6.764;2023-09-08T11:49:40;101366.53;;;36.30
69785;BMP280;14177;51.520;6.764;2023-09-08T11:52:08;101362.13;;;36.62
69785;BMP280;14177;51.520;6.764;2023-09-08T11:54:36;101369.28;;;36.83
69785;BMP280;14177;51.520;6.764;2023-09-08T11:57:21;101372.84;;;36.83
69785;BMP280;14177;51.520;6.764;2023-09-08T11:59:49;101377.84;;;36.93
69785;BMP280;14177;51.520;6.764;2023-09-08T12:02:17;101369.00;;;37.18
69785;BMP280;14177;51.520;6.764;2023-09-08T12:04:45;101360.06;;;37.24
69785;BMP280;14177;51.520;6.764;2023-09-08T12:07:13;101365.66;;;37.03
69785;BMP280;14177;51.520;6.764;2023-09-08T12:09:43;101362.28;;;36.95
69785;BMP280;14177;51.520;6.764;2023-09-08T12:12:13;101367.03;;;36.86
69785;BMP280;14177;51.520;6.764;2023-09-08T12:14:41;101362.94;;;37.03
69785;BMP280;14177;51.520;6.764;2023-09-08T12:17:12;101359.19;;;37.04
69785;BMP280;14177;51.520;6.764;2023-09-08T12:19:44;101349.59;;;36.95
69785;BMP280;14177;51.520;6.764;2023-09-08T12:22:11;101354.22;;;37.14
69785;BMP280;14177;51.520;6.764;2023-09-08T12:27:23;101360.53;;;37.99
69785;BMP280;14177;51.520;6.764;2023-09-08T12:29:55;101349.06;;;38.03
69785;BMP280;14177;51.520;6.764;2023-09-08T12:32:24;101353.44;;;38.11
69785;BMP280;14177;51.520;6.764;2023-09-08T12:34:52;101351.97;;;38.21
69785;BMP280;14177;51.520;6.764;2023-09-08T12:37:21;101357.81;;;37.79
69785;BMP280;14177;51.520;6.764;2023-09-08T12:39:49;101344.69;;;37.44
69785;BMP280;14177;51.520;6.764;2023-09-08T12:42:18;101350.13;;;37.57
69785;BMP280;14177;51.520;6.764;2023-09-08T12:44:46;101343.25;;;37.61
69785;BMP280;14177;51.520;6.764;2023-09-08T12:47:13;101337.97;;;37.27
69785;BMP280;14177;51.520;6.764;2023-09-08T12:49:40;101336.72;;;37.10
69785;BMP280;14177;51.520;6.764;2023-09-08T12:52:08;101333.34;;;36.95
69785;BMP280;14177;51.520;6.764;2023-09-08T12:54:36;101335.03;;;36.96
69785;BMP280;14177;51.520;6.764;2023-09-08T12:57:03;101333.78;;;37.18
69785;BMP280;14177;51.520;6.764;2023-09-08T12:59:32;101324.06;;;37.56
69785;BMP280;14177;51.520;6.764;2023-09-08T13:01:59;101331.34;;;37.56
69785;BMP280;14177;51.520;6.764;2023-09-08T13:04:26;101323.19;;;37.10
69785;BMP280;14177;51.520;6.764;2023-09-08T13:06:53;101330.97;;;36.73
69785;BMP280;14177;51.520;6.764;2023-09-08T13:09:20;101328.03;;;36.68
69785;BMP280;14177;51.520;6.764;2023-09-08T13:11:48;101320.25;;;36.52
69785;BMP280;14177;51.520;6.764;2023-09-08T13:14:15;101323.44;;;36.68
69785;BMP280;14177;51.520;6.764;2023-09-08T13:16:42;101318.81;;;37.09
69785;BMP280;14177;51.520;6.764;2023-09-08T13:19:11;101318.66;;;37.43
69785;BMP280;14177;51.520;6.764;2023-09-08T13:21:38;101327.81;;;37.55
69785;BMP280;14177;51.520;6.764;2023-09-08T13:24:07;101324.88;;;37.31
69785;BMP280;14177;51.520;6.764;2023-09-08T13:26:34;101313.16;;;37.17
69785;BMP280;14177;51.520;6.764;2023-09-08T13:29:01;101318.38;;;36.99
69785;BMP280;14177;51.520;6.764;2023-09-08T13:31:30;101301.84;;;36.88
69785;BMP280;14177;51.520;6.764;2023-09-08T13:33:57;101303.81;;;37.13
69785;BMP280;14177;51.520;6.764;2023-09-08T13:36:24;101317.81;;;37.43
69785;BMP280;14177;51.520;6.764;2023-09-08T13:38:51;101296.56;;;37.59
69785;BMP280;14177;51.520;6.764;2023-09-08T13:41:18;101299.88;;;37.68
69785;BMP280;14177;51.520;6.764;2023-09-08T13:43:45;101298.00;;;37.62
69785;BMP280;14177;51.520;6.764;2023-09-08T13:46:13;101299.88;;;37.48
69785;BMP280;14177;51.520;6.764;2023-09-08T13:48:40;101294.41;;;37.22
69785;BMP280;14177;51.520;6.764;2023-09-08T13:51:09;101298.41;;;37.20
69785;BMP280;14177;51.520;6.764;2023-09-08T13:53:37;101292.34;;;37.11
69785;BMP280;14177;51.520;6.764;2023-09-08T13:56:07;101294.69;;;37.40
69785;BMP280;14177;51.520;6.764;2023-09-08T13:58:35;101296.31;;;37.35
69785;BMP280;14177;51.520;6.764;2023-09-08T14:01:15;101288.78;;;37.17
69785;BMP280;14177;51.520;6.764;2023-09-08T14:03:45;101294.97;;;36.85
69785;BMP280;14177;51.520;6.764;2023-09-08T14:06:15;101281.00;;;36.82
69785;BMP280;14177;51.520;6.764;2023-09-08T14:08:47;101288.19;;;37.15
69785;BMP280;14177;51.520;6.764;2023-09-08T14:11:37;101296.50;;;37.33
69785;BMP280;14177;51.520;6.764;2023-09-08T14:14:06;101292.75;;;37.21
69785;BMP280;14177;51.520;6.764;2023-09-08T14:16:34;101296.31;;;37.35